sensor_id;sensor_type;location;lat;lon;timestamp;pressure;altitude;pressure_sealevel;temperature;humidity
13934;BME280;7039;52.168;9.866;2023-07-13T00:01:20;100404.19;;;20.63;71.63
13934;BME280;7039;52.168;9.866;2023-07-13T00:03:47;100397.88;;;20.74;71.36
13934;BME280;7039;52.168;9.866;2023-07-13T00:06:13;100404.13;;;20.82;71.19
13934;BME280;7039;52.168;9.866;2023-07-13T00:08:40;100406.97;;;20.61;71.82
13934;BME280;7039;52.168;9.866;2023-07-13T00:11:06;100402.66;;;20.51;71.38
13934;BME280;7039;52.168;9.866;2023-07-13T00:13:35;100403.19;;;20.54;72.30
13934;BME280;7039;52.168;9.866;2023-07-13T00:16:05;100404.16;;;20.43;72.05
13934;BME280;7039;52.168;9.866;2023-07-13T00:18:31;100401.94;;;20.39;72.08
13934;BME280;7039;52.168;9.866;2023-07-13T00:20:58;100415.09;;;20.31;72.75
13934;BME280;7039;52.168;9.866;2023-07-13T00:23:30;100412.53;;;20.39;72.25
13934;BME280;7039;52.168;9.866;2023-07-13T00:25:59;100423.94;;;20.69;70.97
13934;BME280;7039;52.168;9.866;2023-07-13T00:28:25;100421.00;;;20.81;70.73
13934;BME280;7039;52.168;9.866;2023-07-13T00:30:52;100419.25;;;21.00;69.73
13934;BME280;7039;52.168;9.866;2023-07-13T00:33:20;100409.59;;;21.09;69.46
13934;BME280;7039;52.168;9.866;2023-07-13T00:35:48;100408.25;;;21.22;68.75
13934;BME280;7039;52.168;9.866;2023-07-13T00:38:14;100405.84;;;21.29;68.42
13934;BME280;7039;52.168;9.866;2023-07-13T00:40:41;100402.91;;;21.32;68.31
13934;BME280;7039;52.168;9.866;2023-07-13T00:43:11;100398.72;;;21.30;68.34
13934;BME280;7039;52.168;9.866;2023-07-13T00:46:17;100402.63;;;21.35;68.42
13934;BME280;7039;52.168;9.866;2023-07-13T00:48:47;100411.72;;;21.33;68.11
13934;BME280;7039;52.168;9.866;2023-07-13T00:51:16;100401.78;;;21.35;68.15
13934;BME280;7039;52.168;9.866;2023-07-13T00:53:44;100401.25;;;21.31;67.60
13934;BME280;7039;52.168;9.866;2023-07-13T00:56:11;100391.78;;;21.01;68.13
13934;BME280;7039;52.168;9.866;2023-07-13T00:58:39;100384.22;;;20.59;69.48
13934;BME280;7039;52.168;9.866;2023-07-13T01:01:05;100391.31;;;20.68;68.20
13934;BME280;7039;52.168;9.866;2023-07-13T01:03:32;100387.16;;;20.46;67.89
13934;BME280;7039;52.168;9.866;2023-07-13T01:06:00;100380.47;;;20.52;67.62
13934;BME280;7039;52.168;9.866;2023-07-13T01:08:27;100378.44;;;20.26;67.46
13934;BME280;7039;52.168;9.866;2023-07-13T01:10:55;100370.38;;;20.08;67.91
13934;BME280;7039;52.168;9.866;2023-07-13T01:13:22;100384.56;;;20.07;68.03
13934;BME280;7039;52.168;9.866;2023-07-13T01:15:51;100383.75;;;19.97;68.95
13934;BME280;7039;52.168;9.866;2023-07-13T01:18:20;100380.53;;;19.93;68.14
13934;BME280;7039;52.168;9.866;2023-07-13T01:20:52;100387.22;;;19.97;68.48
13934;BME280;7039;52.168;9.866;2023-07-13T01:23:20;100387.50;;;19.85;68.80
13934;BME280;7039;52.168;9.866;2023-07-13T01:25:46;100391.53;;;19.89;68.52
13934;BME280;7039;52.168;9.866;2023-07-13T01:28:12;100393.94;;;19.92;68.54
13934;BME280;7039;52.168;9.866;2023-07-13T01:30:40;100395.72;;;19.81;68.86
13934;BME280;7039;52.168;9.866;2023-07-13T01:33:06;100391.53;;;19.69;68.57
13934;BME280;7039;52.168;9.866;2023-07-13T01:35:33;100381.59;;;19.52;68.81
13934;BME280;7039;52.168;9.866;2023-07-13T01:38:01;100399.47;;;19.79;68.19
13934;BME280;7039;52.168;9.866;2023-07-13T01:40:28;100398.38;;;19.81;68.23
13934;BME280;7039;52.168;9.866;2023-07-13T01:42:55;100396.25;;;19.75;67.97
13934;BME280;7039;52.168;9.866;2023-07-13T01:45:22;100398.59;;;19.59;68.07
13934;BME280;7039;52.168;9.866;2023-07-13T01:47:48;100396.34;;;19.45;67.93
13934;BME280;7039;52.168;9.866;2023-07-13T01:50:15;100394.75;;;19.32;68.46
13934;BME280;7039;52.168;9.866;2023-07-13T01:52:41;100403.97;;;19.28;68.39
13934;BME280;7039;52.168;9.866;2023-07-13T01:55:09;100392.06;;;19.13;69.64
13934;BME280;7039;52.168;9.866;2023-07-13T01:57:36;100404.47;;;19.12;69.12
13934;BME280;7039;52.168;9.866;2023-07-13T02:00:04;100404.22;;;19.25;68.68
13934;BME280;7039;52.168;9.866;2023-07-13T02:02:31;100404.88;;;19.08;68.89
13934;BME280;7039;52.168;9.866;2023-07-13T02:04:57;100402.34;;;19.06;69.08
13934;BME280;7039;52.168;9.866;2023-07-13T02:07:24;100405.19;;;19.24;69.38
13934;BME280;7039;52.168;9.866;2023-07-13T02:09:50;100403.16;;;18.97;69.52
13934;BME280;7039;52.168;9.866;2023-07-13T02:12:18;100404.41;;;19.03;69.92
13934;BME280;7039;52.168;9.866;2023-07-13T02:14:44;100414.72;;;19.06;70.01
13934;BME280;7039;52.168;9.866;2023-07-13T02:17:12;100414.28;;;19.01;69.96
13934;BME280;7039;52.168;9.866;2023-07-13T02:19:52;100413.34;;;19.11;69.62
13934;BME280;7039;52.168;9.866;2023-07-13T02:22:19;100419.94;;;19.27;69.56
13934;BME280;7039;52.168;9.866;2023-07-13T02:24:45;100422.63;;;19.36;68.42
13934;BME280;7039;52.168;9.866;2023-07-13T02:27:13;100419.16;;;19.36;68.10
13934;BME280;7039;52.168;9.866;2023-07-13T02:29:41;100425.44;;;19.45;67.76
13934;BME280;7039;52.168;9.866;2023-07-13T02:32:07;100423.91;;;19.42;67.89
13934;BME280;7039;52.168;9.866;2023-07-13T02:34:34;100424.34;;;19.57;67.02
13934;BME280;7039;52.168;9.866;2023-07-13T02:37:00;100426.03;;;19.58;67.19
13934;BME280;7039;52.168;9.866;2023-07-13T02:39:27;100421.00;;;19.55;67.51
13934;BME280;7039;52.168;9.866;2023-07-13T02:41:54;100417.91;;;19.40;67.62
13934;BME280;7039;52.168;9.866;2023-07-13T02:44:20;100419.19;;;19.55;67.21
13934;BME280;7039;52.168;9.866;2023-07-13T02:46:48;100422.19;;;19.72;66.48
13934;BME280;7039;52.168;9.866;2023-07-13T02:49:14;100411.69;;;19.60;66.64
13934;BME280;7039;52.168;9.866;2023-07-13T02:51:41;100418.38;;;19.65;67.40
13934;BME280;7039;52.168;9.866;2023-07-13T02:54:08;100415.25;;;19.40;67.76
13934;BME280;7039;52.168;9.866;2023-07-13T02:56:35;100423.44;;;19.27;68.21
13934;BME280;7039;52.168;9.866;2023-07-13T02:59:04;100426.19;;;19.26;68.70
13934;BME280;7039;52.168;9.866;2023-07-13T03:01:30;100418.81;;;19.19;68.33
13934;BME280;7039;52.168;9.866;2023-07-13T03:04:02;100427.06;;;18.95;69.11
13934;BME280;7039;52.168;9.866;2023-07-13T03:06:30;100413.63;;;18.77;69.71
13934;BME280;7039;52.168;9.866;2023-07-13T03:12:16;100406.88;;;18.73;70.27
13934;BME280;7039;52.168;9.866;2023-07-13T03:14:42;100414.63;;;18.65;70.96
13934;BME280;7039;52.168;9.866;2023-07-13T03:17:09;100409.09;;;18.47;71.51
13934;BME280;7039;52.168;9.866;2023-07-13T03:19:37;100416.78;;;18.71;70.99
13934;BME280;7039;52.168;9.866;2023-07-13T03:22:04;100416.69;;;18.62;70.12
13934;BME280;7039;52.168;9.866;2023-07-13T03:24:32;100421.81;;;18.53;70.19
13934;BME280;7039;52.168;9.866;2023-07-13T03:27:00;100409.50;;;18.43;70.33
13934;BME280;7039;52.168;9.866;2023-07-13T06:29:49;100496.06;;;19.54;65.28
13934;BME280;7039;52.168;9.866;2023-07-13T06:32:16;100509.06;;;19.67;64.95
13934;BME280;7039;52.168;9.866;2023-07-13T08:16:42;100551.75;;;20.62;61.78
13934;BME280;7039;52.168;9.866;2023-07-13T08:19:08;100561.34;;;20.93;62.06
13934;BME280;7039;52.168;9.866;2023-07-13T08:21:34;100554.16;;;21.22;60.67
13934;BME280;7039;52.168;9.866;2023-07-13T08:24:02;100545.63;;;21.28;60.30
13934;BME280;7039;52.168;9.866;2023-07-13T08:26:29;100556.03;;;21.12;60.04
13934;BME280;7039;52.168;9.866;2023-07-13T08:28:56;100562.06;;;21.52;58.42
13934;BME280;7039;52.168;9.866;2023-07-13T08:31:23;100551.66;;;21.21;59.65
13934;BME280;7039;52.168;9.866;2023-07-13T08:33:53;100560.19;;;21.05;60.28
13934;BME280;7039;52.168;9.866;2023-07-13T08:36:22;100568.81;;;21.26;60.28
13934;BME280;7039;52.168;9.866;2023-07-13T08:38:49;100558.94;;;21.19;58.52
13934;BME280;7039;52.168;9.866;2023-07-13T08:41:18;100556.81;;;21.22;59.02
13934;BME280;7039;52.168;9.866;2023-07-13T08:43:50;100561.00;;;21.25;59.85
13934;BME280;7039;52.168;9.866;2023-07-13T08:46:21;100555.94;;;21.32;60.45
13934;BME280;7039;52.168;9.866;2023-07-13T08:48:54;100556.38;;;21.27;59.73
13934;BME280;7039;52.168;9.866;2023-07-13T08:51:30;100559.69;;;20.92;60.38
13934;BME280;7039;52.168;9.866;2023-07-13T08:54:00;100560.56;;;21.39;59.63
13934;BME280;7039;52.168;9.866;2023-07-13T08:56:29;100547.50;;;21.09;60.00
13934;BME280;7039;52.168;9.866;2023-07-13T08:58:57;100563.94;;;21.22;59.37
13934;BME280;7039;52.168;9.866;2023-07-13T09:01:30;100557.44;;;21.54;59.39
13934;BME280;7039;52.168;9.866;2023-07-13T09:04:04;100567.69;;;22.04;59.58
13934;BME280;7039;52.168;9.866;2023-07-13T09:06:36;100560.59;;;21.95;59.01
13934;BME280;7039;52.168;9.866;2023-07-13T09:09:12;100559.25;;;22.36;58.02
13934;BME280;7039;52.168;9.866;2023-07-13T09:11:48;100566.69;;;22.68;57.70
13934;BME280;7039;52.168;9.866;2023-07-13T09:14:38;100559.03;;;22.47;56.87
13934;BME280;7039;52.168;9.866;2023-07-13T09:17:12;100552.22;;;22.17;57.45
13934;BME280;7039;52.168;9.866;2023-07-13T09:19:43;100559.56;;;22.05;58.24
13934;BME280;7039;52.168;9.866;2023-07-13T09:22:15;100570.94;;;21.98;58.47
13934;BME280;7039;52.168;9.866;2023-07-13T09:24:51;100571.09;;;22.24;58.67
13934;BME280;7039;52.168;9.866;2023-07-13T09:27:23;100562.22;;;22.33;57.62
13934;BME280;7039;52.168;9.866;2023-07-13T09:29:54;100558.88;;;22.03;57.46
13934;BME280;7039;52.168;9.866;2023-07-13T09:32:25;100568.50;;;22.50;57.99
13934;BME280;7039;52.168;9.866;2023-07-13T09:34:54;100571.84;;;22.88;56.33
13934;BME280;7039;52.168;9.866;2023-07-13T09:37:22;100575.34;;;23.32;56.69
13934;BME280;7039;52.168;9.866;2023-07-13T09:39:50;100570.16;;;23.31;55.13
13934;BME280;7039;52.168;9.866;2023-07-13T09:42:20;100564.00;;;23.04;56.85
13934;BME280;7039;52.168;9.866;2023-07-13T09:44:53;100567.56;;;22.95;56.16
13934;BME280;7039;52.168;9.866;2023-07-13T09:47:22;100558.47;;;22.62;55.50
13934;BME280;7039;52.168;9.866;2023-07-13T09:49:55;100570.31;;;22.85;56.27
13934;BME280;7039;52.168;9.866;2023-07-13T09:52:24;100556.91;;;22.69;54.78
13934;BME280;7039;52.168;9.866;2023-07-13T09:54:52;100562.78;;;22.99;55.71
13934;BME280;7039;52.168;9.866;2023-07-13T09:57:25;100556.09;;;23.12;56.24
13934;BME280;7039;52.168;9.866;2023-07-13T09:59:53;100563.19;;;22.86;54.92
13934;BME280;7039;52.168;9.866;2023-07-13T10:02:27;100558.25;;;22.73;55.31
13934;BME280;7039;52.168;9.866;2023-07-13T10:04:58;100563.88;;;23.14;55.30
13934;BME280;7039;52.168;9.866;2023-07-13T10:07:25;100540.84;;;22.79;54.54
13934;BME280;7039;52.168;9.866;2023-07-13T10:09:52;100550.69;;;22.86;55.86
13934;BME280;7039;52.168;9.866;2023-07-13T10:12:19;100551.72;;;22.67;54.60
13934;BME280;7039;52.168;9.866;2023-07-13T10:14:50;100566.13;;;23.19;54.13
13934;BME280;7039;52.168;9.866;2023-07-13T10:17:19;100565.16;;;23.28;54.39
13934;BME280;7039;52.168;9.866;2023-07-13T10:19:51;100559.03;;;23.70;54.13
13934;BME280;7039;52.168;9.866;2023-07-13T10:22:24;100564.22;;;23.71;55.36
13934;BME280;7039;52.168;9.866;2023-07-13T10:24:53;100562.34;;;23.64;54.19
13934;BME280;7039;52.168;9.866;2023-07-13T10:27:25;100555.56;;;23.35;53.82
13934;BME280;7039;52.168;9.866;2023-07-13T10:29:55;100548.78;;;23.14;53.30
13934;BME280;7039;52.168;9.866;2023-07-13T10:32:25;100553.72;;;23.35;53.92
13934;BME280;7039;52.168;9.866;2023-07-13T10:34:51;100559.09;;;23.18;53.39
13934;BME280;7039;52.168;9.866;2023-07-13T10:37:23;100556.81;;;22.79;54.95
13934;BME280;7039;52.168;9.866;2023-07-13T10:39:53;100565.59;;;23.15;53.52
13934;BME280;7039;52.168;9.866;2023-07-13T10:42:25;100570.59;;;23.52;54.35
13934;BME280;7039;52.168;9.866;2023-07-13T10:44:53;100558.97;;;23.88;53.92
13934;BME280;7039;52.168;9.866;2023-07-13T10:47:20;100577.63;;;23.88;52.49
13934;BME280;7039;52.168;9.866;2023-07-13T10:49:48;100560.78;;;23.79;51.32
13934;BME280;7039;52.168;9.866;2023-07-13T10:52:42;100564.13;;;23.81;51.86
13934;BME280;7039;52.168;9.866;2023-07-13T10:55:30;100569.19;;;24.01;51.40
13934;BME280;7039;52.168;9.866;2023-07-13T10:58:00;100570.94;;;24.43;50.44
13934;BME280;7039;52.168;9.866;2023-07-13T11:00:31;100559.19;;;23.94;51.50
13934;BME280;7039;52.168;9.866;2023-07-13T11:02:59;100563.53;;;23.69;51.52
13934;BME280;7039;52.168;9.866;2023-07-13T11:05:30;100566.75;;;23.21;52.38
13934;BME280;7039;52.168;9.866;2023-07-13T11:08:13;100573.81;;;23.30;53.04
13934;BME280;7039;52.168;9.866;2023-07-13T11:10:51;100563.97;;;23.22;53.02
13934;BME280;7039;52.168;9.866;2023-07-13T11:13:56;100563.88;;;23.14;53.26
13934;BME280;7039;52.168;9.866;2023-07-13T11:16:35;100564.16;;;23.55;52.20
13934;BME280;7039;52.168;9.866;2023-07-13T11:19:27;100566.09;;;23.45;52.43
13934;BME280;7039;52.168;9.866;2023-07-13T11:22:12;100557.94;;;23.46;52.77
13934;BME280;7039;52.168;9.866;2023-07-13T11:24:52;100561.59;;;23.45;53.59
13934;BME280;7039;52.168;9.866;2023-07-13T11:27:35;100561.22;;;23.14;53.09
13934;BME280;7039;52.168;9.866;2023-07-13T11:30:22;100554.06;;;23.41;52.02
13934;BME280;7039;52.168;9.866;2023-07-13T11:32:51;100564.84;;;23.31;52.33
13934;BME280;7039;52.168;9.866;2023-07-13T11:35:27;100556.34;;;23.62;52.59
13934;BME280;7039;52.168;9.866;2023-07-13T11:37:54;100557.44;;;24.28;52.10
13934;BME280;7039;52.168;9.866;2023-07-13T11:40:25;100558.59;;;24.33;51.28
13934;BME280;7039;52.168;9.866;2023-07-13T11:42:59;100560.75;;;24.38;50.87
13934;BME280;7039;52.168;9.866;2023-07-13T11:45:25;100569.50;;;24.48;50.68
13934;BME280;7039;52.168;9.866;2023-07-13T11:47:53;100553.16;;;24.92;50.10
13934;BME280;7039;52.168;9.866;2023-07-13T11:50:23;100555.97;;;24.99;48.57
13934;BME280;7039;52.168;9.866;2023-07-13T11:52:52;100549.31;;;25.03;48.02
13934;BME280;7039;52.168;9.866;2023-07-13T11:55:23;100554.25;;;25.39;48.57
13934;BME280;7039;52.168;9.866;2023-07-13T11:57:53;100549.13;;;24.96;48.64
13934;BME280;7039;52.168;9.866;2023-07-13T12:00:27;100548.47;;;24.94;47.85
13934;BME280;7039;52.168;9.866;2023-07-13T12:02:57;100543.78;;;25.05;47.49
13934;BME280;7039;52.168;9.866;2023-07-13T12:05:25;100541.47;;;24.61;48.03
13934;BME280;7039;52.168;9.866;2023-07-13T12:07:52;100536.25;;;24.34;48.46
13934;BME280;7039;52.168;9.866;2023-07-13T12:10:23;100546.16;;;24.83;47.84
13934;BME280;7039;52.168;9.866;2023-07-13T12:12:53;100544.97;;;25.66;47.73
13934;BME280;7039;52.168;9.866;2023-07-13T12:15:23;100546.03;;;25.96;47.51
13934;BME280;7039;52.168;9.866;2023-07-13T12:17:50;100545.28;;;26.11;47.08
13934;BME280;7039;52.168;9.866;2023-07-13T12:20:23;100541.38;;;25.90;45.71
13934;BME280;7039;52.168;9.866;2023-07-13T12:22:51;100545.69;;;26.45;46.17
13934;BME280;7039;52.168;9.866;2023-07-13T12:25:18;100541.81;;;25.62;43.53
13934;BME280;7039;52.168;9.866;2023-07-13T12:27:49;100538.28;;;26.10;43.59
13934;BME280;7039;52.168;9.866;2023-07-13T12:30:24;100540.72;;;26.42;43.21
13934;BME280;7039;52.168;9.866;2023-07-13T12:33:00;100540.91;;;26.64;44.64
13934;BME280;7039;52.168;9.866;2023-07-13T12:35:28;100521.22;;;26.80;43.51
13934;BME280;7039;52.168;9.866;2023-07-13T12:37:59;100537.66;;;26.45;42.28
13934;BME280;7039;52.168;9.866;2023-07-13T12:40:34;100546.94;;;26.81;44.66
13934;BME280;7039;52.168;9.866;2023-07-13T12:43:03;100545.84;;;26.90;46.48
13934;BME280;7039;52.168;9.866;2023-07-13T12:45:32;100543.47;;;26.95;46.04
13934;BME280;7039;52.168;9.866;2023-07-13T12:48:03;100546.31;;;26.56;44.58
13934;BME280;7039;52.168;9.866;2023-07-13T12:50:37;100551.16;;;26.06;46.20
13934;BME280;7039;52.168;9.866;2023-07-13T12:53:13;100543.66;;;26.56;46.67
13934;BME280;7039;52.168;9.866;2023-07-13T12:55:41;100538.94;;;26.12;45.81
13934;BME280;7039;52.168;9.866;2023-07-13T12:58:17;100539.25;;;26.09;45.48
13934;BME280;7039;52.168;9.866;2023-07-13T13:00:48;100540.94;;;25.70;45.07
13934;BME280;7039;52.168;9.866;2023-07-13T13:03:22;100549.22;;;25.92;44.94
13934;BME280;7039;52.168;9.866;2023-07-13T13:05:57;100547.66;;;26.52;44.59
13934;BME280;7039;52.168;9.866;2023-07-13T13:08:25;100546.34;;;26.48;45.04
13934;BME280;7039;52.168;9.866;2023-07-13T13:10:51;100549.69;;;26.50;44.27
13934;BME280;7039;52.168;9.866;2023-07-13T13:13:19;100557.16;;;26.77;44.64
13934;BME280;7039;52.168;9.866;2023-07-13T13:15:45;100544.34;;;27.40;43.74
13934;BME280;7039;52.168;9.866;2023-07-13T13:18:17;100552.84;;;27.29;44.61
13934;BME280;7039;52.168;9.866;2023-07-13T13:20:44;100548.00;;;27.99;41.64
13934;BME280;7039;52.168;9.866;2023-07-13T13:23:12;100550.16;;;27.74;42.98
13934;BME280;7039;52.168;9.866;2023-07-13T13:25:43;100544.06;;;27.65;41.58
13934;BME280;7039;52.168;9.866;2023-07-13T13:28:14;100552.09;;;27.95;41.66
13934;BME280;7039;52.168;9.866;2023-07-13T13:30:43;100558.06;;;27.82;41.31
13934;BME280;7039;52.168;9.866;2023-07-13T13:33:10;100561.69;;;27.15;42.83
13934;BME280;7039;52.168;9.866;2023-07-13T13:35:38;100566.91;;;25.45;44.78
13934;BME280;7039;52.168;9.866;2023-07-13T13:38:10;100567.31;;;24.93;46.74
13934;BME280;7039;52.168;9.866;2023-07-13T13:40:37;100562.50;;;24.55;47.19
13934;BME280;7039;52.168;9.866;2023-07-13T13:43:13;100559.66;;;24.65;47.75
13934;BME280;7039;52.168;9.866;2023-07-13T13:45:40;100560.47;;;24.66;47.36
13934;BME280;7039;52.168;9.866;2023-07-13T13:48:14;100555.94;;;24.42;48.54
13934;BME280;7039;52.168;9.866;2023-07-13T13:50:41;100566.97;;;24.63;48.05
13934;BME280;7039;52.168;9.866;2023-07-13T13:53:10;100579.31;;;25.21;46.60
13934;BME280;7039;52.168;9.866;2023-07-13T13:55:37;100569.53;;;25.61;46.35
13934;BME280;7039;52.168;9.866;2023-07-13T13:58:04;100569.06;;;26.52;44.16
13934;BME280;7039;52.168;9.866;2023-07-13T14:00:31;100562.09;;;28.44;41.82
13934;BME280;7039;52.168;9.866;2023-07-13T14:02:57;100574.72;;;29.91;41.15
13934;BME280;7039;52.168;9.866;2023-07-13T14:05:26;100569.84;;;30.21;40.87
13934;BME280;7039;52.168;9.866;2023-07-13T14:07:53;100568.56;;;27.92;42.78
13934;BME280;7039;52.168;9.866;2023-07-13T14:10:20;100575.84;;;27.38;44.36
13934;BME280;7039;52.168;9.866;2023-07-13T14:12:50;100580.59;;;25.98;46.19
13934;BME280;7039;52.168;9.866;2023-07-13T14:17:52;100603.50;;;24.04;53.10
13934;BME280;7039;52.168;9.866;2023-07-13T14:20:20;100609.75;;;22.08;60.09
13934;BME280;7039;52.168;9.866;2023-07-13T14:22:51;100619.69;;;20.93;65.80
13934;BME280;7039;52.168;9.866;2023-07-13T14:25:18;100641.06;;;19.91;70.53
13934;BME280;7039;52.168;9.866;2023-07-13T14:27:48;100669.47;;;19.26;75.65
13934;BME280;7039;52.168;9.866;2023-07-13T14:30:17;100678.78;;;18.22;80.47
13934;BME280;7039;52.168;9.866;2023-07-13T14:32:44;100666.38;;;17.77;84.34
13934;BME280;7039;52.168;9.866;2023-07-13T14:35:11;100670.88;;;18.10;88.97
13934;BME280;7039;52.168;9.866;2023-07-13T14:37:38;100674.34;;;17.88;88.68
13934;BME280;7039;52.168;9.866;2023-07-13T14:40:14;100691.91;;;17.65;89.56
13934;BME280;7039;52.168;9.866;2023-07-13T14:42:41;100703.31;;;17.77;89.57
13934;BME280;7039;52.168;9.866;2023-07-13T14:45:13;100702.69;;;17.73;90.72
13934;BME280;7039;52.168;9.866;2023-07-13T14:47:40;100716.31;;;17.91;89.90
13934;BME280;7039;52.168;9.866;2023-07-13T14:50:13;100726.28;;;17.99;88.93
13934;BME280;7039;52.168;9.866;2023-07-13T14:52:41;100731.94;;;17.59;86.06
13934;BME280;7039;52.168;9.866;2023-07-13T14:55:10;100749.88;;;17.78;86.86
13934;BME280;7039;52.168;9.866;2023-07-13T14:57:38;100748.69;;;17.82;86.66
13934;BME280;7039;52.168;9.866;2023-07-13T15:00:09;100753.63;;;17.98;87.85
13934;BME280;7039;52.168;9.866;2023-07-13T15:02:39;100775.25;;;18.03;86.64
13934;BME280;7039;52.168;9.866;2023-07-13T15:05:12;100776.84;;;18.40;88.91
13934;BME280;7039;52.168;9.866;2023-07-13T15:07:39;100772.88;;;18.23;85.39
13934;BME280;7039;52.168;9.866;2023-07-13T15:10:13;100769.03;;;18.27;86.80
13934;BME280;7039;52.168;9.866;2023-07-13T15:12:41;100773.94;;;18.09;84.54
13934;BME280;7039;52.168;9.866;2023-07-13T15:15:08;100774.19;;;18.17;84.96
13934;BME280;7039;52.168;9.866;2023-07-13T15:20:18;100772.16;;;17.74;82.58
13934;BME280;7039;52.168;9.866;2023-07-13T15:22:46;100768.50;;;17.88;81.80
13934;BME280;7039;52.168;9.866;2023-07-13T15:25:16;100756.25;;;17.51;81.27
13934;BME280;7039;52.168;9.866;2023-07-13T15:27:45;100763.97;;;17.66;80.56
13934;BME280;7039;52.168;9.866;2023-07-13T15:30:13;100765.03;;;17.87;81.20
13934;BME280;7039;52.168;9.866;2023-07-13T15:32:41;100771.50;;;17.94;81.38
13934;BME280;7039;52.168;9.866;2023-07-13T15:35:14;100767.41;;;17.90;81.38
13934;BME280;7039;52.168;9.866;2023-07-13T15:37:41;100769.25;;;18.01;82.06
13934;BME280;7039;52.168;9.866;2023-07-13T15:40:10;100780.91;;;18.32;81.71
13934;BME280;7039;52.168;9.866;2023-07-13T15:42:38;100774.69;;;18.45;81.64
13934;BME280;7039;52.168;9.866;2023-07-13T15:45:15;100779.34;;;18.52;80.60
13934;BME280;7039;52.168;9.866;2023-07-13T15:47:42;100781.50;;;18.36;80.04
13934;BME280;7039;52.168;9.866;2023-07-13T15:50:12;100778.41;;;18.53;80.72
13934;BME280;7039;52.168;9.866;2023-07-13T15:52:39;100770.22;;;18.23;81.26
13934;BME280;7039;52.168;9.866;2023-07-13T15:55:09;100776.34;;;18.68;80.47
13934;BME280;7039;52.168;9.866;2023-07-13T15:57:36;100770.47;;;18.76;80.02
13934;BME280;7039;52.168;9.866;2023-07-13T16:00:05;100771.28;;;18.76;80.11
13934;BME280;7039;52.168;9.866;2023-07-13T16:02:52;100771.53;;;18.85;80.23
13934;BME280;7039;52.168;9.866;2023-07-13T16:12:01;100766.97;;;18.64;78.71
13934;BME280;7039;52.168;9.866;2023-07-13T16:21:10;100761.94;;;18.61;78.49
